sensor_id;sensor_type;location;lat;lon;timestamp;temperature;humidity
1504;DHT22;743;47.076;15.494;2022-10-17T00:02:01;14.30;1.00
1504;DHT22;743;47.076;15.494;2022-10-17T00:04:28;14.50;99.90
1504;DHT22;743;47.076;15.494;2022-10-17T00:06:54;14.30;99.90
1504;DHT22;743;47.076;15.494;2022-10-17T00:09:21;14.40;99.90
1504;DHT22;743;47.076;15.494;2022-10-17T00:11:48;14.50;99.90
1504;DHT22;743;47.076;15.494;2022-10-17T00:14:15;14.70;99.90
1504;DHT22;743;47.076;15.494;2022-10-17T00:16:43;14.70;1.00
1504;DHT22;743;47.076;15.494;2022-10-17T00:19:14;14.60;36.10
1504;DHT22;743;47.076;15.494;2022-10-17T00:21:41;14.40;99.90
1504;DHT22;743;47.076;15.494;2022-10-17T00:24:10;14.30;99.90
1504;DHT22;743;47.076;15.494;2022-10-17T00:26:37;14.00;1.00
1504;DHT22;743;47.076;15.494;2022-10-17T00:29:06;14.00;1.00
1504;DHT22;743;47.076;15.494;2022-10-17T00:31:35;14.30;99.90
1504;DHT22;743;47.076;15.494;2022-10-17T00:34:01;14.20;99.90
1504;DHT22;743;47.076;15.494;2022-10-17T00:36:30;14.20;99.90
1504;DHT22;743;47.076;15.494;2022-10-17T00:38:57;14.30;99.90
1504;DHT22;743;47.076;15.494;2022-10-17T00:41:26;14.00;99.90
1504;DHT22;743;47.076;15.494;2022-10-17T00:43:55;14.10;99.90
1504;DHT22;743;47.076;15.494;2022-10-17T00:46:23;14.10;99.90
1504;DHT22;743;47.076;15.494;2022-10-17T00:48:51;14.20;99.90
1504;DHT22;743;47.076;15.494;2022-10-17T00:51:22;14.40;56.30
1504;DHT22;743;47.076;15.494;2022-10-17T00:53:53;14.50;1.00
1504;DHT22;743;47.076;15.494;2022-10-17T00:56:22;14.50;1.00
1504;DHT22;743;47.076;15.494;2022-10-17T00:58:49;14.40;1.00
1504;DHT22;743;47.076;15.494;2022-10-17T01:01:19;14.40;1.00
1504;DHT22;743;47.076;15.494;2022-10-17T01:03:46;14.20;1.00
1504;DHT22;743;47.076;15.494;2022-10-17T01:06:12;13.90;1.00
1504;DHT22;743;47.076;15.494;2022-10-17T01:08:40;13.90;91.30
1504;DHT22;743;47.076;15.494;2022-10-17T01:11:11;14.10;94.20
1504;DHT22;743;47.076;15.494;2022-10-17T01:13:42;14.30;42.80
1504;DHT22;743;47.076;15.494;2022-10-17T01:16:12;14.40;26.90
1504;DHT22;743;47.076;15.494;2022-10-17T01:18:50;14.40;1.00
1504;DHT22;743;47.076;15.494;2022-10-17T01:21:28;14.60;1.00
1504;DHT22;743;47.076;15.494;2022-10-17T01:26:53;14.40;1.00
1504;DHT22;743;47.076;15.494;2022-10-17T01:29:28;14.40;1.00
1504;DHT22;743;47.076;15.494;2022-10-17T01:32:00;14.30;1.00
1504;DHT22;743;47.076;15.494;2022-10-17T01:34:30;14.20;1.00
1504;DHT22;743;47.076;15.494;2022-10-17T01:37:00;13.90;99.90
1504;DHT22;743;47.076;15.494;2022-10-17T01:39:28;13.80;99.90
1504;DHT22;743;47.076;15.494;2022-10-17T01:42:00;13.70;99.90
1504;DHT22;743;47.076;15.494;2022-10-17T01:44:31;13.60;1.00
1504;DHT22;743;47.076;15.494;2022-10-17T01:47:05;13.50;1.00
1504;DHT22;743;47.076;15.494;2022-10-17T01:49:33;13.70;99.90
1504;DHT22;743;47.076;15.494;2022-10-17T01:52:02;13.70;99.90
1504;DHT22;743;47.076;15.494;2022-10-17T01:54:32;13.80;99.90
1504;DHT22;743;47.076;15.494;2022-10-17T01:57:04;13.70;99.90
1504;DHT22;743;47.076;15.494;2022-10-17T01:59:35;13.50;99.90
1504;DHT22;743;47.076;15.494;2022-10-17T02:02:04;13.40;1.00
1504;DHT22;743;47.076;15.494;2022-10-17T02:04:32;13.50;1.00
1504;DHT22;743;47.076;15.494;2022-10-17T02:07:04;13.50;1.00
1504;DHT22;743;47.076;15.494;2022-10-17T02:09:33;13.50;1.00
1504;DHT22;743;47.076;15.494;2022-10-17T02:12:13;13.60;1.00
1504;DHT22;743;47.076;15.494;2022-10-17T02:14:46;13.70;1.00
1504;DHT22;743;47.076;15.494;2022-10-17T02:17:21;13.70;1.00
1504;DHT22;743;47.076;15.494;2022-10-17T02:19:55;13.80;1.00
1504;DHT22;743;47.076;15.494;2022-10-17T02:22:26;14.00;99.90
1504;DHT22;743;47.076;15.494;2022-10-17T02:24:58;14.00;99.90
1504;DHT22;743;47.076;15.494;2022-10-17T02:27:30;14.10;22.70
1504;DHT22;743;47.076;15.494;2022-10-17T02:30:00;14.10;1.00
1504;DHT22;743;47.076;15.494;2022-10-17T02:32:33;14.00;53.70
1504;DHT22;743;47.076;15.494;2022-10-17T02:35:02;13.90;97.40
1504;DHT22;743;47.076;15.494;2022-10-17T02:37:33;13.70;99.90
1504;DHT22;743;47.076;15.494;2022-10-17T02:40:00;13.70;99.90
1504;DHT22;743;47.076;15.494;2022-10-17T02:42:28;13.60;99.90
1504;DHT22;743;47.076;15.494;2022-10-17T02:44:57;13.60;99.90
1504;DHT22;743;47.076;15.494;2022-10-17T02:47:26;13.60;99.90
1504;DHT22;743;47.076;15.494;2022-10-17T02:49:55;13.70;99.90
1504;DHT22;743;47.076;15.494;2022-10-17T02:52:25;13.70;99.90
1504;DHT22;743;47.076;15.494;2022-10-17T02:54:55;13.40;99.90
1504;DHT22;743;47.076;15.494;2022-10-17T02:57:25;13.40;99.90
1504;DHT22;743;47.076;15.494;2022-10-17T02:59:54;13.50;99.90
1504;DHT22;743;47.076;15.494;2022-10-17T03:02:23;13.60;97.80
1504;DHT22;743;47.076;15.494;2022-10-17T03:04:51;13.30;99.90
1504;DHT22;743;47.076;15.494;2022-10-17T03:07:22;13.40;99.90
1504;DHT22;743;47.076;15.494;2022-10-17T03:09:49;13.20;99.90
1504;DHT22;743;47.076;15.494;2022-10-17T03:12:21;13.20;1.00
1504;DHT22;743;47.076;15.494;2022-10-17T03:14:49;13.20;1.00
1504;DHT22;743;47.076;15.494;2022-10-17T03:17:21;13.30;99.90
1504;DHT22;743;47.076;15.494;2022-10-17T03:19:49;13.40;99.90
1504;DHT22;743;47.076;15.494;2022-10-17T03:22:16;13.30;99.90
1504;DHT22;743;47.076;15.494;2022-10-17T03:24:47;13.20;99.90
1504;DHT22;743;47.076;15.494;2022-10-17T03:27:14;13.20;99.90
1504;DHT22;743;47.076;15.494;2022-10-17T03:29:41;13.20;99.90
1504;DHT22;743;47.076;15.494;2022-10-17T03:32:09;13.10;1.00
1504;DHT22;743;47.076;15.494;2022-10-17T03:34:36;13.30;1.00
1504;DHT22;743;47.076;15.494;2022-10-17T03:37:05;13.30;99.90
1504;DHT22;743;47.076;15.494;2022-10-17T03:39:33;13.30;99.90
1504;DHT22;743;47.076;15.494;2022-10-17T03:42:02;13.40;99.90
1504;DHT22;743;47.076;15.494;2022-10-17T03:44:29;13.50;99.90
1504;DHT22;743;47.076;15.494;2022-10-17T03:46:57;13.20;99.90
1504;DHT22;743;47.076;15.494;2022-10-17T03:49:26;13.10;1.00
1504;DHT22;743;47.076;15.494;2022-10-17T03:51:53;13.30;1.00
1504;DHT22;743;47.076;15.494;2022-10-17T03:54:20;13.30;1.00
1504;DHT22;743;47.076;15.494;2022-10-17T03:56:47;13.40;99.90
1504;DHT22;743;47.076;15.494;2022-10-17T03:59:15;13.50;99.90
1504;DHT22;743;47.076;15.494;2022-10-17T04:01:43;13.50;99.90
1504;DHT22;743;47.076;15.494;2022-10-17T04:04:10;13.50;99.90
1504;DHT22;743;47.076;15.494;2022-10-17T04:06:37;13.90;99.90
1504;DHT22;743;47.076;15.494;2022-10-17T04:09:07;13.70;99.90
1504;DHT22;743;47.076;15.494;2022-10-17T04:11:41;13.40;99.90
1504;DHT22;743;47.076;15.494;2022-10-17T04:14:08;13.40;99.90
1504;DHT22;743;47.076;15.494;2022-10-17T04:16:37;13.40;99.90
1504;DHT22;743;47.076;15.494;2022-10-17T04:19:04;13.40;1.00
1504;DHT22;743;47.076;15.494;2022-10-17T04:21:31;13.40;99.90
1504;DHT22;743;47.076;15.494;2022-10-17T04:23:59;13.40;99.90
1504;DHT22;743;47.076;15.494;2022-10-17T04:26:26;13.30;99.90
1504;DHT22;743;47.076;15.494;2022-10-17T04:28:53;13.30;99.90
1504;DHT22;743;47.076;15.494;2022-10-17T04:31:21;13.50;99.90
1504;DHT22;743;47.076;15.494;2022-10-17T04:33:50;13.20;99.90
1504;DHT22;743;47.076;15.494;2022-10-17T04:36:17;13.10;99.90
1504;DHT22;743;47.076;15.494;2022-10-17T04:38:44;13.10;99.90
1504;DHT22;743;47.076;15.494;2022-10-17T04:41:12;13.10;99.90
1504;DHT22;743;47.076;15.494;2022-10-17T04:43:40;13.10;99.90
1504;DHT22;743;47.076;15.494;2022-10-17T04:46:07;13.30;99.90
1504;DHT22;743;47.076;15.494;2022-10-17T04:48:37;13.30;99.90
1504;DHT22;743;47.076;15.494;2022-10-17T04:51:09;13.40;99.90
1504;DHT22;743;47.076;15.494;2022-10-17T04:53:37;13.30;99.90
1504;DHT22;743;47.076;15.494;2022-10-17T04:56:08;13.20;99.90
1504;DHT22;743;47.076;15.494;2022-10-17T04:58:36;13.40;1.00
1504;DHT22;743;47.076;15.494;2022-10-17T05:01:04;13.30;99.90
1504;DHT22;743;47.076;15.494;2022-10-17T05:03:32;13.30;99.90
1504;DHT22;743;47.076;15.494;2022-10-17T05:06:02;13.30;99.90
1504;DHT22;743;47.076;15.494;2022-10-17T05:08:33;13.20;99.90
1504;DHT22;743;47.076;15.494;2022-10-17T05:11:01;13.10;99.90
1504;DHT22;743;47.076;15.494;2022-10-17T05:13:28;13.00;99.90
1504;DHT22;743;47.076;15.494;2022-10-17T05:15:57;13.10;99.90
1504;DHT22;743;47.076;15.494;2022-10-17T05:18:25;13.00;99.90
1504;DHT22;743;47.076;15.494;2022-10-17T05:20:53;13.00;1.00
1504;DHT22;743;47.076;15.494;2022-10-17T05:23:23;13.10;1.00
1504;DHT22;743;47.076;15.494;2022-10-17T05:25:56;13.00;1.00
1504;DHT22;743;47.076;15.494;2022-10-17T05:28:26;12.90;1.00
1504;DHT22;743;47.076;15.494;2022-10-17T05:30:55;13.00;1.00
1504;DHT22;743;47.076;15.494;2022-10-17T05:33:22;13.00;1.00
1504;DHT22;743;47.076;15.494;2022-10-17T05:35:49;14.20;99.90
1504;DHT22;743;47.076;15.494;2022-10-17T05:38:16;15.60;1.00
1504;DHT22;743;47.076;15.494;2022-10-17T05:40:45;16.50;1.00
1504;DHT22;743;47.076;15.494;2022-10-17T05:43:16;17.00;1.00
1504;DHT22;743;47.076;15.494;2022-10-17T05:45:43;16.50;1.00
1504;DHT22;743;47.076;15.494;2022-10-17T05:48:10;15.70;1.00
1504;DHT22;743;47.076;15.494;2022-10-17T05:50:36;15.00;1.00
1504;DHT22;743;47.076;15.494;2022-10-17T05:53:04;14.50;1.00
1504;DHT22;743;47.076;15.494;2022-10-17T05:55:30;14.10;1.00
1504;DHT22;743;47.076;15.494;2022-10-17T05:57:58;13.70;1.00
1504;DHT22;743;47.076;15.494;2022-10-17T06:00:28;13.60;99.90
1504;DHT22;743;47.076;15.494;2022-10-17T06:02:56;13.60;99.90
1504;DHT22;743;47.076;15.494;2022-10-17T06:05:23;13.60;99.90
1504;DHT22;743;47.076;15.494;2022-10-17T06:07:50;13.50;99.90
1504;DHT22;743;47.076;15.494;2022-10-17T06:10:18;13.40;99.90
1504;DHT22;743;47.076;15.494;2022-10-17T06:12:47;13.40;99.90
1504;DHT22;743;47.076;15.494;2022-10-17T06:15:14;14.10;1.00
1504;DHT22;743;47.076;15.494;2022-10-17T06:17:42;16.00;48.60
1504;DHT22;743;47.076;15.494;2022-10-17T06:20:10;17.40;1.00
1504;DHT22;743;47.076;15.494;2022-10-17T06:22:37;18.40;1.00
1504;DHT22;743;47.076;15.494;2022-10-17T06:25:05;18.00;1.00
1504;DHT22;743;47.076;15.494;2022-10-17T06:27:32;17.40;1.00
1504;DHT22;743;47.076;15.494;2022-10-17T06:30:00;16.70;1.00
1504;DHT22;743;47.076;15.494;2022-10-17T06:32:27;16.20;1.00
1504;DHT22;743;47.076;15.494;2022-10-17T06:34:58;15.70;1.00
1504;DHT22;743;47.076;15.494;2022-10-17T06:37:29;15.20;1.00
1504;DHT22;743;47.076;15.494;2022-10-17T06:39:56;15.30;1.00
1504;DHT22;743;47.076;15.494;2022-10-17T06:42:28;15.10;1.00
1504;DHT22;743;47.076;15.494;2022-10-17T06:44:55;14.90;1.00
1504;DHT22;743;47.076;15.494;2022-10-17T06:47:23;14.90;1.00
1504;DHT22;743;47.076;15.494;2022-10-17T06:49:50;15.00;1.00
1504;DHT22;743;47.076;15.494;2022-10-17T06:52:18;14.80;1.00
1504;DHT22;743;47.076;15.494;2022-10-17T06:54:46;14.80;5.00
1504;DHT22;743;47.076;15.494;2022-10-17T06:57:14;14.90;37.50
1504;DHT22;743;47.076;15.494;2022-10-17T06:59:43;15.00;10.20
1504;DHT22;743;47.076;15.494;2022-10-17T07:02:11;15.00;5.50
1504;DHT22;743;47.076;15.494;2022-10-17T07:04:38;15.20;1.00
1504;DHT22;743;47.076;15.494;2022-10-17T07:07:07;15.40;1.00
1504;DHT22;743;47.076;15.494;2022-10-17T07:09:36;15.50;1.00
1504;DHT22;743;47.076;15.494;2022-10-17T07:12:04;15.60;1.00
1504;DHT22;743;47.076;15.494;2022-10-17T07:14:33;15.80;1.00
1504;DHT22;743;47.076;15.494;2022-10-17T07:17:00;15.90;1.00
1504;DHT22;743;47.076;15.494;2022-10-17T07:19:27;16.00;1.00
1504;DHT22;743;47.076;15.494;2022-10-17T07:21:57;16.10;1.00
1504;DHT22;743;47.076;15.494;2022-10-17T07:24:24;16.20;1.00
1504;DHT22;743;47.076;15.494;2022-10-17T07:26:52;16.30;1.00
1504;DHT22;743;47.076;15.494;2022-10-17T07:29:20;16.40;1.00
1504;DHT22;743;47.076;15.494;2022-10-17T07:31:47;16.40;1.00
1504;DHT22;743;47.076;15.494;2022-10-17T07:34:16;16.50;1.00
1504;DHT22;743;47.076;15.494;2022-10-17T07:36:44;16.60;1.00
1504;DHT22;743;47.076;15.494;2022-10-17T07:39:11;16.70;1.00
1504;DHT22;743;47.076;15.494;2022-10-17T07:41:53;16.80;1.00
1504;DHT22;743;47.076;15.494;2022-10-17T07:44:20;17.50;1.00
1504;DHT22;743;47.076;15.494;2022-10-17T07:46:46;17.80;1.00
1504;DHT22;743;47.076;15.494;2022-10-17T07:49:13;17.90;1.00
1504;DHT22;743;47.076;15.494;2022-10-17T07:51:40;17.90;1.00
1504;DHT22;743;47.076;15.494;2022-10-17T07:54:07;17.80;1.00
1504;DHT22;743;47.076;15.494;2022-10-17T07:56:36;17.90;1.00
1504;DHT22;743;47.076;15.494;2022-10-17T07:59:05;18.00;1.00
1504;DHT22;743;47.076;15.494;2022-10-17T08:01:33;18.00;1.00
1504;DHT22;743;47.076;15.494;2022-10-17T08:04:00;18.00;1.00
1504;DHT22;743;47.076;15.494;2022-10-17T08:06:27;18.00;1.00
1504;DHT22;743;47.076;15.494;2022-10-17T08:08:54;18.00;1.00
1504;DHT22;743;47.076;15.494;2022-10-17T08:11:22;18.20;1.00
1504;DHT22;743;47.076;15.494;2022-10-17T08:13:49;18.70;1.00
1504;DHT22;743;47.076;15.494;2022-10-17T08:16:18;18.70;36.10
1504;DHT22;743;47.076;15.494;2022-10-17T08:18:45;18.70;1.00
1504;DHT22;743;47.076;15.494;2022-10-17T08:21:12;18.80;1.00
1504;DHT22;743;47.076;15.494;2022-10-17T08:23:41;18.80;1.00
1504;DHT22;743;47.076;15.494;2022-10-17T08:26:08;19.80;1.00
1504;DHT22;743;47.076;15.494;2022-10-17T08:28:37;20.10;99.90
1504;DHT22;743;47.076;15.494;2022-10-17T08:31:05;20.20;99.90
1504;DHT22;743;47.076;15.494;2022-10-17T08:33:35;20.00;1.00
1504;DHT22;743;47.076;15.494;2022-10-17T08:36:02;19.70;1.00
1504;DHT22;743;47.076;15.494;2022-10-17T08:38:33;19.40;1.00
1504;DHT22;743;47.076;15.494;2022-10-17T08:41:02;18.80;1.00
1504;DHT22;743;47.076;15.494;2022-10-17T08:43:32;19.20;1.00
1504;DHT22;743;47.076;15.494;2022-10-17T08:46:01;19.10;1.00
1504;DHT22;743;47.076;15.494;2022-10-17T08:48:29;19.30;1.00
1504;DHT22;743;47.076;15.494;2022-10-17T08:50:59;19.10;1.00
1504;DHT22;743;47.076;15.494;2022-10-17T08:53:28;19.20;1.00
1504;DHT22;743;47.076;15.494;2022-10-17T08:55:58;19.30;1.00
1504;DHT22;743;47.076;15.494;2022-10-17T08:58:27;19.40;1.00
1504;DHT22;743;47.076;15.494;2022-10-17T09:00:58;19.50;1.00
1504;DHT22;743;47.076;15.494;2022-10-17T09:03:37;19.50;1.00
1504;DHT22;743;47.076;15.494;2022-10-17T09:06:20;19.60;1.00
1504;DHT22;743;47.076;15.494;2022-10-17T09:08:56;19.60;1.00
1504;DHT22;743;47.076;15.494;2022-10-17T09:11:32;19.60;1.00
1504;DHT22;743;47.076;15.494;2022-10-17T09:14:06;19.80;1.00
1504;DHT22;743;47.076;15.494;2022-10-17T09:16:44;19.90;1.00
1504;DHT22;743;47.076;15.494;2022-10-17T09:19:15;20.00;1.00
1504;DHT22;743;47.076;15.494;2022-10-17T09:21:45;20.10;1.00
1504;DHT22;743;47.076;15.494;2022-10-17T09:24:14;20.20;1.00
1504;DHT22;743;47.076;15.494;2022-10-17T09:26:43;20.50;1.00
1504;DHT22;743;47.076;15.494;2022-10-17T09:29:13;20.60;1.00
1504;DHT22;743;47.076;15.494;2022-10-17T09:31:44;20.50;1.00
1504;DHT22;743;47.076;15.494;2022-10-17T09:34:11;20.60;1.00
1504;DHT22;743;47.076;15.494;2022-10-17T09:36:38;20.70;1.00
1504;DHT22;743;47.076;15.494;2022-10-17T09:39:10;20.70;1.00
1504;DHT22;743;47.076;15.494;2022-10-17T09:41:38;20.80;1.00
1504;DHT22;743;47.076;15.494;2022-10-17T09:44:12;20.80;1.00
1504;DHT22;743;47.076;15.494;2022-10-17T09:46:39;21.00;1.00
1504;DHT22;743;47.076;15.494;2022-10-17T09:49:09;21.00;1.00
1504;DHT22;743;47.076;15.494;2022-10-17T09:51:37;21.10;1.00
1504;DHT22;743;47.076;15.494;2022-10-17T09:54:06;21.00;1.00
1504;DHT22;743;47.076;15.494;2022-10-17T09:59:30;21.10;1.00
1504;DHT22;743;47.076;15.494;2022-10-17T10:02:06;21.20;1.00
1504;DHT22;743;47.076;15.494;2022-10-17T10:04:33;21.30;1.00
1504;DHT22;743;47.076;15.494;2022-10-17T10:07:01;21.30;1.00
1504;DHT22;743;47.076;15.494;2022-10-17T10:09:29;21.30;1.00
1504;DHT22;743;47.076;15.494;2022-10-17T10:11:56;21.40;1.00
1504;DHT22;743;47.076;15.494;2022-10-17T10:14:27;21.50;1.00
1504;DHT22;743;47.076;15.494;2022-10-17T10:17:00;21.60;1.00
1504;DHT22;743;47.076;15.494;2022-10-17T10:19:28;21.60;1.00
1504;DHT22;743;47.076;15.494;2022-10-17T10:21:57;21.70;1.00
1504;DHT22;743;47.076;15.494;2022-10-17T10:24:26;21.70;1.00
1504;DHT22;743;47.076;15.494;2022-10-17T10:26:54;21.80;1.00
1504;DHT22;743;47.076;15.494;2022-10-17T10:29:25;21.90;1.00
1504;DHT22;743;47.076;15.494;2022-10-17T10:31:55;21.90;1.00
1504;DHT22;743;47.076;15.494;2022-10-17T10:34:25;21.80;1.00
1504;DHT22;743;47.076;15.494;2022-10-17T10:36:54;21.80;1.00
1504;DHT22;743;47.076;15.494;2022-10-17T10:39:24;21.90;1.00
1504;DHT22;743;47.076;15.494;2022-10-17T10:41:52;22.70;1.00
1504;DHT22;743;47.076;15.494;2022-10-17T10:44:20;22.80;1.00
1504;DHT22;743;47.076;15.494;2022-10-17T10:46:48;23.30;1.00
1504;DHT22;743;47.076;15.494;2022-10-17T10:49:32;23.30;1.00
1504;DHT22;743;47.076;15.494;2022-10-17T10:51:59;23.40;1.00
1504;DHT22;743;47.076;15.494;2022-10-17T10:54:31;23.60;1.00
1504;DHT22;743;47.076;15.494;2022-10-17T10:57:11;23.70;1.00
1504;DHT22;743;47.076;15.494;2022-10-17T10:59:46;23.70;1.00
1504;DHT22;743;47.076;15.494;2022-10-17T11:02:23;23.80;1.00
1504;DHT22;743;47.076;15.494;2022-10-17T11:04:54;23.80;1.00
1504;DHT22;743;47.076;15.494;2022-10-17T11:07:23;23.90;1.00
1504;DHT22;743;47.076;15.494;2022-10-17T11:09:53;24.00;1.00
1504;DHT22;743;47.076;15.494;2022-10-17T11:12:23;24.00;1.00
1504;DHT22;743;47.076;15.494;2022-10-17T11:14:52;24.20;1.00
1504;DHT22;743;47.076;15.494;2022-10-17T11:17:22;24.20;1.00
1504;DHT22;743;47.076;15.494;2022-10-17T11:19:58;24.10;1.00
1504;DHT22;743;47.076;15.494;2022-10-17T11:22:29;24.10;1.00
1504;DHT22;743;47.076;15.494;2022-10-17T11:24:57;24.10;1.00
1504;DHT22;743;47.076;15.494;2022-10-17T11:27:25;24.10;1.00
1504;DHT22;743;47.076;15.494;2022-10-17T11:29:53;24.10;1.00
1504;DHT22;743;47.076;15.494;2022-10-17T11:32:21;24.40;1.00
1504;DHT22;743;47.076;15.494;2022-10-17T11:34:50;24.40;1.00
1504;DHT22;743;47.076;15.494;2022-10-17T11:37:21;24.70;1.00
1504;DHT22;743;47.076;15.494;2022-10-17T11:39:49;24.50;1.00
1504;DHT22;743;47.076;15.494;2022-10-17T11:42:19;24.60;1.00
1504;DHT22;743;47.076;15.494;2022-10-17T11:44:49;24.70;1.00
1504;DHT22;743;47.076;15.494;2022-10-17T11:47:25;24.70;1.00
1504;DHT22;743;47.076;15.494;2022-10-17T11:49:53;24.70;1.00
1504;DHT22;743;47.076;15.494;2022-10-17T11:52:26;24.50;1.00
1504;DHT22;743;47.076;15.494;2022-10-17T11:54:55;24.50;1.00
1504;DHT22;743;47.076;15.494;2022-10-17T11:57:30;24.30;1.00
1504;DHT22;743;47.076;15.494;2022-10-17T12:00:11;24.10;1.00
1504;DHT22;743;47.076;15.494;2022-10-17T12:02:47;24.20;1.00
1504;DHT22;743;47.076;15.494;2022-10-17T12:05:20;24.30;1.00
1504;DHT22;743;47.076;15.494;2022-10-17T12:07:53;24.30;1.00
1504;DHT22;743;47.076;15.494;2022-10-17T12:10:27;24.40;1.00
1504;DHT22;743;47.076;15.494;2022-10-17T12:13:00;24.40;1.00
1504;DHT22;743;47.076;15.494;2022-10-17T12:15:48;24.40;1.00
1504;DHT22;743;47.076;15.494;2022-10-17T12:18:15;24.40;1.00
1504;DHT22;743;47.076;15.494;2022-10-17T12:20:43;24.50;1.00
1504;DHT22;743;47.076;15.494;2022-10-17T12:23:26;24.50;1.00
1504;DHT22;743;47.076;15.494;2022-10-17T12:25:54;24.40;1.00
1504;DHT22;743;47.076;15.494;2022-10-17T12:28:26;24.40;1.00
1504;DHT22;743;47.076;15.494;2022-10-17T12:30:55;24.40;1.00
1504;DHT22;743;47.076;15.494;2022-10-17T12:33:26;24.50;1.00
1504;DHT22;743;47.076;15.494;2022-10-17T12:38:39;24.70;1.00
1504;DHT22;743;47.076;15.494;2022-10-17T12:41:06;24.80;1.00
1504;DHT22;743;47.076;15.494;2022-10-17T12:43:42;24.80;1.00
1504;DHT22;743;47.076;15.494;2022-10-17T12:46:10;24.70;1.00
1504;DHT22;743;47.076;15.494;2022-10-17T12:49:01;24.90;1.00
1504;DHT22;743;47.076;15.494;2022-10-17T12:51:28;24.80;1.00
1504;DHT22;743;47.076;15.494;2022-10-17T12:53:58;24.90;1.00
1504;DHT22;743;47.076;15.494;2022-10-17T12:56:29;24.90;1.00
1504;DHT22;743;47.076;15.494;2022-10-17T12:58:59;25.10;1.00
1504;DHT22;743;47.076;15.494;2022-10-17T13:01:27;25.10;1.00
1504;DHT22;743;47.076;15.494;2022-10-17T13:03:57;25.10;1.00
1504;DHT22;743;47.076;15.494;2022-10-17T13:06:28;25.10;1.00
1504;DHT22;743;47.076;15.494;2022-10-17T13:08:59;25.10;1.00
1504;DHT22;743;47.076;15.494;2022-10-17T13:11:28;25.00;1.00
1504;DHT22;743;47.076;15.494;2022-10-17T13:13:56;25.10;1.00
1504;DHT22;743;47.076;15.494;2022-10-17T13:16:29;25.00;1.00
1504;DHT22;743;47.076;15.494;2022-10-17T13:18:56;24.90;1.00
1504;DHT22;743;47.076;15.494;2022-10-17T13:21:27;25.10;1.00
1504;DHT22;743;47.076;15.494;2022-10-17T13:23:53;25.20;1.00
1504;DHT22;743;47.076;15.494;2022-10-17T13:26:23;25.20;1.00
1504;DHT22;743;47.076;15.494;2022-10-17T13:29:00;25.30;1.00
1504;DHT22;743;47.076;15.494;2022-10-17T13:31:35;25.20;1.00
1504;DHT22;743;47.076;15.494;2022-10-17T13:34:05;25.20;1.00
1504;DHT22;743;47.076;15.494;2022-10-17T13:36:32;25.10;1.00
1504;DHT22;743;47.076;15.494;2022-10-17T13:39:04;25.20;1.00
1504;DHT22;743;47.076;15.494;2022-10-17T13:41:33;25.40;1.00
1504;DHT22;743;47.076;15.494;2022-10-17T13:44:01;25.30;1.00
1504;DHT22;743;47.076;15.494;2022-10-17T13:46:30;23.90;1.00
1504;DHT22;743;47.076;15.494;2022-10-17T13:48:57;25.20;1.00
1504;DHT22;743;47.076;15.494;2022-10-17T13:51:26;25.20;1.00
1504;DHT22;743;47.076;15.494;2022-10-17T13:53:56;25.20;1.00
1504;DHT22;743;47.076;15.494;2022-10-17T13:56:24;25.30;1.00
1504;DHT22;743;47.076;15.494;2022-10-17T13:58:53;25.40;1.00
1504;DHT22;743;47.076;15.494;2022-10-17T14:01:24;25.40;1.00
1504;DHT22;743;47.076;15.494;2022-10-17T14:03:52;25.40;1.00
1504;DHT22;743;47.076;15.494;2022-10-17T14:06:20;25.60;1.00
1504;DHT22;743;47.076;15.494;2022-10-17T14:08:53;25.90;1.00
1504;DHT22;743;47.076;15.494;2022-10-17T14:11:23;25.90;1.00
1504;DHT22;743;47.076;15.494;2022-10-17T14:13:54;25.90;1.00
1504;DHT22;743;47.076;15.494;2022-10-17T14:16:23;25.90;1.00
1504;DHT22;743;47.076;15.494;2022-10-17T14:18:51;25.90;1.00
1504;DHT22;743;47.076;15.494;2022-10-17T14:21:22;25.80;1.00
1504;DHT22;743;47.076;15.494;2022-10-17T14:23:50;25.80;1.00
1504;DHT22;743;47.076;15.494;2022-10-17T14:26:18;25.70;1.00
1504;DHT22;743;47.076;15.494;2022-10-17T14:28:46;25.70;1.00
1504;DHT22;743;47.076;15.494;2022-10-17T14:31:22;25.70;1.00
1504;DHT22;743;47.076;15.494;2022-10-17T14:33:51;25.80;1.00
1504;DHT22;743;47.076;15.494;2022-10-17T14:36:18;25.80;1.00
1504;DHT22;743;47.076;15.494;2022-10-17T14:38:47;25.90;1.00
1504;DHT22;743;47.076;15.494;2022-10-17T14:41:18;25.90;1.00
1504;DHT22;743;47.076;15.494;2022-10-17T14:43:51;26.00;1.00
1504;DHT22;743;47.076;15.494;2022-10-17T14:46:22;26.00;1.00
1504;DHT22;743;47.076;15.494;2022-10-17T14:48:52;25.80;1.00
1504;DHT22;743;47.076;15.494;2022-10-17T14:51:20;25.80;1.00
1504;DHT22;743;47.076;15.494;2022-10-17T14:53:58;25.80;1.00
1504;DHT22;743;47.076;15.494;2022-10-17T14:56:26;25.60;1.00
1504;DHT22;743;47.076;15.494;2022-10-17T14:58:53;25.80;1.00
1504;DHT22;743;47.076;15.494;2022-10-17T15:01:22;25.70;1.00
1504;DHT22;743;47.076;15.494;2022-10-17T15:03:49;25.50;1.00
1504;DHT22;743;47.076;15.494;2022-10-17T15:06:16;25.00;1.00
1504;DHT22;743;47.076;15.494;2022-10-17T15:08:46;24.80;1.00
1504;DHT22;743;47.076;15.494;2022-10-17T15:11:13;24.40;1.00
1504;DHT22;743;47.076;15.494;2022-10-17T15:13:40;24.30;1.00
1504;DHT22;743;47.076;15.494;2022-10-17T15:16:11;23.80;1.00
1504;DHT22;743;47.076;15.494;2022-10-17T15:18:41;23.60;1.00
1504;DHT22;743;47.076;15.494;2022-10-17T15:21:10;23.40;1.00
1504;DHT22;743;47.076;15.494;2022-10-17T15:23:38;23.20;1.00
1504;DHT22;743;47.076;15.494;2022-10-17T15:32:39;21.50;1.00
1504;DHT22;743;47.076;15.494;2022-10-17T15:35:09;22.50;1.00
1504;DHT22;743;47.076;15.494;2022-10-17T15:37:45;22.60;1.00
1504;DHT22;743;47.076;15.494;2022-10-17T15:40:54;22.60;1.00
1504;DHT22;743;47.076;15.494;2022-10-17T15:43:35;22.50;1.00
1504;DHT22;743;47.076;15.494;2022-10-17T15:46:21;22.30;1.00
1504;DHT22;743;47.076;15.494;2022-10-17T15:48:51;21.90;1.00
1504;DHT22;743;47.076;15.494;2022-10-17T15:57:26;21.60;1.00
1504;DHT22;743;47.076;15.494;2022-10-17T15:59:54;21.50;1.00
1504;DHT22;743;47.076;15.494;2022-10-17T16:02:22;21.40;1.00
1504;DHT22;743;47.076;15.494;2022-10-17T16:04:50;21.20;1.00
1504;DHT22;743;47.076;15.494;2022-10-17T16:07:18;21.10;1.00
1504;DHT22;743;47.076;15.494;2022-10-17T16:09:47;21.10;1.00
1504;DHT22;743;47.076;15.494;2022-10-17T16:15:26;21.00;1.00
1504;DHT22;743;47.076;15.494;2022-10-17T16:17:59;20.60;1.00
1504;DHT22;743;47.076;15.494;2022-10-17T16:20:27;20.50;1.00
1504;DHT22;743;47.076;15.494;2022-10-17T16:23:08;20.30;1.00
1504;DHT22;743;47.076;15.494;2022-10-17T16:25:36;20.20;1.00
1504;DHT22;743;47.076;15.494;2022-10-17T16:28:05;20.20;1.00
1504;DHT22;743;47.076;15.494;2022-10-17T16:30:38;20.10;1.00
1504;DHT22;743;47.076;15.494;2022-10-17T16:33:07;20.10;1.00
1504;DHT22;743;47.076;15.494;2022-10-17T16:35:37;20.10;1.00
1504;DHT22;743;47.076;15.494;2022-10-17T16:38:06;20.10;1.00
1504;DHT22;743;47.076;15.494;2022-10-17T16:40:33;20.10;1.00
1504;DHT22;743;47.076;15.494;2022-10-17T16:43:01;20.00;1.00
1504;DHT22;743;47.076;15.494;2022-10-17T16:45:30;19.90;1.00
1504;DHT22;743;47.076;15.494;2022-10-17T16:47:59;19.90;1.00
1504;DHT22;743;47.076;15.494;2022-10-17T16:50:26;20.00;1.00
1504;DHT22;743;47.076;15.494;2022-10-17T16:52:55;20.40;1.00
1504;DHT22;743;47.076;15.494;2022-10-17T16:55:24;20.90;1.00